createdAt,value
2023-04-02T00:01:22.340Z,98688.44
2023-04-02T00:03:49.096Z,98684.13
2023-04-02T00:06:33.771Z,98674.97
2023-04-02T00:09:02.954Z,98662.66
2023-04-02T00:11:40.885Z,98656.53
2023-04-02T00:14:33.999Z,98676.31
2023-04-02T00:17:04.735Z,98677.81
2023-04-02T00:19:31.141Z,98670.03
2023-04-02T00:21:59.476Z,98666.34
2023-04-02T00:24:26.068Z,98665.69
2023-04-02T00:26:54.267Z,98660.38
2023-04-02T00:29:21.299Z,98664.06
2023-04-02T00:31:50.624Z,98688.13
2023-04-02T00:34:32.607Z,98694.47
2023-04-02T00:37:00.233Z,98690.63
2023-04-02T00:39:34.670Z,98668.19
2023-04-02T00:42:01.139Z,98645.06
2023-04-02T00:44:28.469Z,98643.44
2023-04-02T00:46:55.359Z,98640.13
2023-04-02T00:49:29.960Z,98642.78
2023-04-02T00:52:02.463Z,98633.78
2023-04-02T00:54:32.728Z,98632.16
2023-04-02T00:56:59.509Z,98645.44
2023-04-02T00:59:33.781Z,98661.19
2023-04-02T01:02:21.995Z,98652.41
2023-04-02T01:05:21.040Z,98668.19
2023-04-02T01:08:09.454Z,98675.34
2023-04-02T01:10:48.053Z,98664.50
2023-04-02T01:13:23.232Z,98673.31
2023-04-02T01:16:02.869Z,98682.47
2023-04-02T01:18:44.625Z,98665.69
2023-04-02T01:21:38.773Z,98670.03
2023-04-02T01:24:08.398Z,98685.13
2023-04-02T01:26:52.562Z,98695.13
2023-04-02T01:29:25.975Z,98670.38
2023-04-02T01:31:55.316Z,98677.34
2023-04-02T01:34:26.667Z,98665.69
2023-04-02T01:37:04.904Z,98655.06
2023-04-02T01:39:31.464Z,98671.00
2023-04-02T01:42:21.676Z,98663.22
2023-04-02T01:45:03.911Z,98654.22
2023-04-02T01:47:32.455Z,98657.72
2023-04-02T01:50:27.895Z,98692.19
2023-04-02T01:52:57.137Z,98720.66
2023-04-02T01:55:35.374Z,98738.81
2023-04-02T01:58:03.153Z,98734.81
2023-04-02T02:00:31.287Z,98736.25
2023-04-02T02:03:01.043Z,98712.78
2023-04-02T02:05:28.628Z,98695.66
2023-04-02T02:07:57.144Z,98679.53
2023-04-02T02:10:27.405Z,98672.56
2023-04-02T02:12:54.228Z,98713.44
2023-04-02T02:15:23.208Z,98744.59
2023-04-02T02:17:55.365Z,98762.00
2023-04-02T02:20:22.249Z,98763.84
2023-04-02T02:22:51.164Z,98752.03
2023-04-02T02:25:22.075Z,98772.47
2023-04-02T02:28:07.071Z,98817.81
2023-04-02T02:30:43.242Z,98867.75
2023-04-02T02:33:45.916Z,98900.81
2023-04-02T02:36:21.034Z,98913.44
2023-04-02T02:39:02.567Z,98939.84
2023-04-02T02:41:37.720Z,98944.34
2023-04-02T02:44:10.579Z,98936.19
2023-04-02T02:46:54.269Z,98915.75
2023-04-02T02:49:27.011Z,98929.03
2023-04-02T02:52:01.086Z,98944.00
2023-04-02T02:54:30.981Z,98975.06
2023-04-02T02:57:03.612Z,98993.81
2023-04-02T02:59:31.396Z,99023.25
2023-04-02T03:02:00.237Z,99017.25
2023-04-02T03:04:27.352Z,98998.31
2023-04-02T03:06:56.192Z,99003.44
2023-04-02T03:09:33.875Z,99041.50
2023-04-02T03:12:12.393Z,99064.28
2023-04-02T03:14:46.487Z,99131.38
2023-04-02T03:17:21.245Z,99179.69
2023-04-02T03:19:54.903Z,99195.66
2023-04-02T03:22:30.431Z,99208.09
2023-04-02T03:25:15.007Z,99217.22
2023-04-02T03:27:47.260Z,99244.97
2023-04-02T03:30:41.041Z,99268.53
2023-04-02T03:33:15.270Z,99279.16
2023-04-02T03:35:47.682Z,99297.13
2023-04-02T03:38:25.203Z,99322.50
2023-04-02T03:41:05.170Z,99348.41
2023-04-02T03:43:40.401Z,99372.16
2023-04-02T03:46:34.207Z,99390.09
2023-04-02T03:49:08.230Z,99408.34
2023-04-02T03:51:43.425Z,99417.59
2023-04-02T03:54:15.422Z,98600.06
2023-04-02T03:56:45.798Z,98568.47
2023-04-02T03:59:30.728Z,98555.25
2023-04-02T04:02:06.433Z,98565.50
2023-04-02T04:04:34.510Z,98568.34
2023-04-02T04:07:01.686Z,98577.78
2023-04-02T04:09:39.080Z,98577.97
2023-04-02T04:12:10.979Z,98583.97
2023-04-02T04:14:45.165Z,98585.47
2023-04-02T04:17:26.869Z,98591.75
2023-04-02T04:20:15.801Z,98597.06
2023-04-02T04:22:42.304Z,98605.69
2023-04-02T04:25:22.164Z,98604.63
2023-04-02T04:28:07.854Z,98618.38
2023-04-02T04:30:50.279Z,98621.84
2023-04-02T04:33:25.419Z,98619.84
2023-04-02T04:35:56.921Z,98626.31
2023-04-02T04:38:31.714Z,98624.50
2023-04-02T04:41:14.679Z,98623.50
2023-04-02T04:43:52.641Z,98630.63
2023-04-02T04:46:35.367Z,98645.03
2023-04-02T04:49:22.581Z,98639.91
2023-04-02T04:51:54.244Z,98645.56
2023-04-02T04:54:20.732Z,98641.97
2023-04-02T04:56:51.346Z,98653.78
2023-04-02T04:59:44.868Z,98663.84
2023-04-02T05:02:23.197Z,98663.69
2023-04-02T05:04:52.279Z,98668.00
2023-04-02T05:07:22.860Z,98664.97
2023-04-02T05:10:06.863Z,98669.94
2023-04-02T05:12:48.759Z,98681.56
2023-04-02T05:15:33.710Z,98697.88
2023-04-02T05:18:31.304Z,98697.88
2023-04-02T05:21:22.552Z,98694.53
2023-04-02T05:23:56.441Z,98705.06
2023-04-02T05:26:32.278Z,98720.16
2023-04-02T05:29:20.677Z,98724.66
2023-04-02T05:32:00.397Z,98730.28
2023-04-02T05:34:32.568Z,98735.94
2023-04-02T05:36:59.313Z,98724.31
2023-04-02T05:39:27.693Z,98723.00
2023-04-02T05:42:05.501Z,98732.94
2023-04-02T05:44:39.912Z,98736.53
2023-04-02T05:47:14.108Z,98739.34
2023-04-02T05:49:48.442Z,98750.63
2023-04-02T05:52:25.026Z,98769.81
2023-04-02T05:55:27.998Z,98803.53
2023-04-02T05:58:29.655Z,98824.44
2023-04-02T06:01:04.404Z,98829.88
2023-04-02T06:03:33.842Z,98834.94
2023-04-02T06:06:07.074Z,98850.28
2023-04-02T06:08:42.530Z,98854.56
2023-04-02T06:11:22.931Z,98856.44
2023-04-02T06:13:49.549Z,98861.41
2023-04-02T06:16:16.589Z,98869.00
2023-04-02T06:18:44.348Z,98874.78
2023-04-02T06:21:15.434Z,98880.22
2023-04-02T06:23:48.746Z,98880.19
2023-04-02T06:26:35.917Z,98890.03
2023-04-02T06:29:06.321Z,98892.16
2023-04-02T06:31:54.128Z,98897.75
2023-04-02T06:34:23.416Z,98901.03
2023-04-02T06:36:51.800Z,98907.41
2023-04-02T06:39:22.049Z,98903.75
2023-04-02T06:42:05.257Z,98907.34
2023-04-02T06:44:35.446Z,98906.16
2023-04-02T06:47:27.939Z,98911.78
2023-04-02T06:50:16.363Z,98929.84
2023-04-02T06:53:01.510Z,98933.84
2023-04-02T06:55:52.418Z,98933.16
2023-04-02T06:58:20.514Z,98930.03
2023-04-02T07:00:49.970Z,98935.63
2023-04-02T07:03:25.448Z,98938.13
2023-04-02T07:05:52.140Z,98954.47
2023-04-02T07:08:18.570Z,98958.38
2023-04-02T07:10:45.363Z,98965.66
2023-04-02T07:13:21.919Z,98965.09
2023-04-02T07:15:53.786Z,98973.66
2023-04-02T07:18:26.413Z,98974.56
2023-04-02T07:20:54.091Z,98979.69
2023-04-02T07:23:20.526Z,98984.97
2023-04-02T07:25:52.992Z,98982.38
2023-04-02T07:28:22.436Z,98976.31
2023-04-02T07:30:50.055Z,98991.13
2023-04-02T07:33:18.567Z,98995.72
2023-04-02T07:35:45.657Z,99002.94
2023-04-02T07:38:12.147Z,99003.91
2023-04-02T07:40:38.915Z,99006.50
2023-04-02T07:43:06.922Z,99007.88
2023-04-02T07:45:33.683Z,99014.59
2023-04-02T07:48:08.466Z,99018.16
2023-04-02T07:50:35.266Z,99016.56
2023-04-02T07:53:01.981Z,99018.75
2023-04-02T07:55:28.814Z,99020.63
2023-04-02T07:57:58.156Z,99021.53
2023-04-02T08:00:26.715Z,99032.41
2023-04-02T08:02:53.805Z,99028.84
2023-04-02T08:05:20.394Z,99031.34
2023-04-02T08:07:56.740Z,99029.03
2023-04-02T08:10:23.900Z,99034.91
2023-04-02T08:12:50.454Z,99029.09
2023-04-02T08:15:17.172Z,99034.25
2023-04-02T08:17:43.863Z,99026.38
2023-04-02T08:20:18.243Z,99027.84
2023-04-02T08:22:48.960Z,99030.69
2023-04-02T08:25:15.903Z,99042.09
2023-04-02T08:27:42.813Z,99053.13
2023-04-02T08:30:12.393Z,99049.66
2023-04-02T08:32:39.057Z,99032.19
2023-04-02T08:35:05.965Z,99016.88
2023-04-02T08:37:32.678Z,99006.09
2023-04-02T08:39:59.335Z,99001.63
2023-04-02T08:42:40.779Z,98994.69
2023-04-02T08:45:44.511Z,98982.75
2023-04-02T08:48:12.888Z,99001.34
2023-04-02T08:50:42.473Z,98997.06
2023-04-02T08:53:23.140Z,98998.25
2023-04-02T08:56:09.889Z,99001.72
2023-04-02T08:58:43.777Z,99008.88
2023-04-02T09:01:27.606Z,98989.03
2023-04-02T09:03:58.202Z,99007.25
2023-04-02T09:06:25.502Z,99011.50
2023-04-02T09:08:54.394Z,99028.59
2023-04-02T09:11:42.340Z,99024.22
2023-04-02T09:14:19.314Z,99019.34
2023-04-02T09:16:55.657Z,99003.28
2023-04-02T09:19:45.024Z,99008.84
2023-04-02T09:22:20.890Z,98969.34
2023-04-02T09:25:04.700Z,98990.97
2023-04-02T09:27:35.008Z,99006.28
2023-04-02T09:30:13.607Z,98988.28
2023-04-02T09:33:00.846Z,98985.44
2023-04-02T09:35:29.686Z,99004.72
2023-04-02T09:38:31.853Z,99027.34
2023-04-02T09:41:06.717Z,99025.84
2023-04-02T09:43:37.592Z,98955.75
2023-04-02T09:46:06.115Z,98878.75
2023-04-02T09:48:35.938Z,98854.75
2023-04-02T09:51:22.492Z,98830.66
2023-04-02T09:54:04.243Z,98823.06
2023-04-02T09:56:33.536Z,98839.13
2023-04-02T09:59:03.319Z,98883.38
2023-04-02T10:01:31.685Z,98851.53
2023-04-02T10:03:58.850Z,98849.53
2023-04-02T10:06:28.031Z,98902.81
2023-04-02T10:08:54.629Z,98832.81
2023-04-02T10:11:26.957Z,98825.47
2023-04-02T10:14:00.595Z,98878.69
2023-04-02T10:16:39.277Z,98930.06
2023-04-02T10:19:44.362Z,98896.28
2023-04-02T10:22:17.963Z,98910.75
2023-04-02T10:24:45.315Z,98904.47
2023-04-02T10:27:38.065Z,98907.16
2023-04-02T10:30:31.432Z,98944.13
2023-04-02T10:33:05.813Z,98915.53
2023-04-02T10:36:24.222Z,98898.63
2023-04-02T10:39:03.817Z,98928.97
2023-04-02T10:41:37.589Z,98910.16
2023-04-02T10:44:21.870Z,98841.19
2023-04-02T10:47:31.152Z,98832.34
2023-04-02T10:50:04.142Z,98802.72
2023-04-02T10:52:41.204Z,98805.00
2023-04-02T10:55:18.359Z,98834.06
2023-04-02T10:57:48.303Z,98820.66
2023-04-02T11:00:21.169Z,98781.13
2023-04-02T11:02:57.068Z,98775.38
2023-04-02T11:05:41.672Z,98781.91
2023-04-02T11:08:50.590Z,98745.19
2023-04-02T11:11:26.638Z,98737.88
2023-04-02T11:14:17.986Z,98755.56
2023-04-02T11:16:45.239Z,98752.72
2023-04-02T11:19:14.771Z,98786.91
2023-04-02T11:21:58.121Z,98798.81
2023-04-02T11:24:47.758Z,98846.56
2023-04-02T11:27:23.043Z,98875.56
2023-04-02T11:29:55.905Z,98884.97
2023-04-02T11:32:26.846Z,98891.06
2023-04-02T11:35:03.420Z,98899.28
2023-04-02T11:37:41.868Z,98905.25
2023-04-02T11:40:12.085Z,98919.66
2023-04-02T11:42:41.130Z,98928.13
2023-04-02T11:45:24.318Z,98919.44
2023-04-02T11:47:59.907Z,98926.34
2023-04-02T11:50:38.474Z,98935.88
2023-04-02T11:53:22.093Z,98939.78
2023-04-02T11:55:57.505Z,98944.66
2023-04-02T11:58:47.159Z,98928.03
2023-04-02T12:01:16.817Z,98926.06
2023-04-02T12:03:49.235Z,98939.53
2023-04-02T12:06:46.344Z,98926.59
2023-04-02T12:09:28.077Z,98924.56
2023-04-02T12:12:00.769Z,98950.53
2023-04-02T12:14:32.988Z,98920.72
2023-04-02T12:17:01.253Z,98925.88
2023-04-02T12:19:29.697Z,98926.31
2023-04-02T12:21:58.233Z,98914.63
2023-04-02T12:24:27.714Z,98909.50
2023-04-02T12:27:18.677Z,98902.50
2023-04-02T12:29:45.186Z,98911.16
2023-04-02T12:32:27.758Z,98919.97
2023-04-02T12:34:57.217Z,98921.84
2023-04-02T12:37:26.886Z,98925.03
2023-04-02T12:40:17.198Z,98956.31
2023-04-02T12:42:43.852Z,98962.47
2023-04-02T12:45:23.772Z,98971.97
2023-04-02T12:47:50.255Z,98962.28
2023-04-02T12:50:18.025Z,98967.59
2023-04-02T12:52:46.262Z,98971.97
2023-04-02T12:55:35.966Z,98969.00
2023-04-02T12:58:02.424Z,98962.38
2023-04-02T13:00:31.122Z,98967.53
2023-04-02T13:03:19.525Z,98963.63
2023-04-02T13:05:57.078Z,98980.75
2023-04-02T13:08:28.018Z,98971.53
2023-04-02T13:11:02.678Z,98953.13
2023-04-02T13:13:40.539Z,98938.09
2023-04-02T13:16:09.843Z,98942.66
2023-04-02T13:18:37.915Z,98925.63
2023-04-02T13:21:28.513Z,98919.25
2023-04-02T13:23:55.211Z,98891.66
2023-04-02T13:26:22.981Z,98889.78
2023-04-02T13:28:56.145Z,98872.75
2023-04-02T13:31:22.563Z,98866.38
2023-04-02T13:33:49.012Z,98849.06
2023-04-02T13:36:15.877Z,98856.88
2023-04-02T13:38:42.818Z,98853.63
2023-04-02T13:41:25.650Z,98863.50
2023-04-02T13:43:54.174Z,98867.19
2023-04-02T13:46:24.121Z,98894.56
2023-04-02T13:48:51.631Z,98909.94
2023-04-02T13:51:19.728Z,98935.41
2023-04-02T13:53:50.513Z,98985.78
2023-04-02T13:56:16.982Z,99020.72
2023-04-02T13:58:44.272Z,99059.53
2023-04-02T14:01:10.874Z,99074.38
2023-04-02T14:03:37.945Z,99073.22
2023-04-02T14:06:09.650Z,99078.09
2023-04-02T14:08:53.394Z,99103.72
2023-04-02T14:11:34.087Z,99137.09
2023-04-02T14:14:11.007Z,99172.06
2023-04-02T14:16:56.321Z,99187.56
2023-04-02T14:19:48.523Z,99205.59
2023-04-02T14:22:17.841Z,99212.56
2023-04-02T14:24:55.458Z,99255.97
2023-04-02T14:27:45.288Z,99281.47
2023-04-02T14:30:40.102Z,99320.88
2023-04-02T14:33:36.266Z,99315.81
2023-04-02T14:36:15.143Z,99343.75
2023-04-02T14:39:17.178Z,99358.00
2023-04-02T14:41:58.711Z,99374.03
2023-04-02T14:44:31.084Z,99372.59
2023-04-02T14:47:11.242Z,99360.19
2023-04-02T14:49:42.887Z,99341.38
2023-04-02T14:52:14.980Z,99363.59
2023-04-02T14:54:52.745Z,99325.84
2023-04-02T14:57:30.216Z,99326.28
2023-04-02T15:00:05.871Z,99313.63
2023-04-02T15:02:55.805Z,99286.63
2023-04-02T15:05:41.315Z,99312.69
2023-04-02T15:08:13.744Z,99298.81
2023-04-02T15:11:09.935Z,99294.19
2023-04-02T15:13:55.141Z,99328.16
2023-04-02T15:16:24.052Z,99322.53
2023-04-02T15:18:57.463Z,99300.88
2023-04-02T15:21:49.848Z,99299.41
2023-04-02T15:24:53.511Z,99324.25
2023-04-02T15:27:39.672Z,99325.13
2023-04-02T15:30:13.315Z,99337.03
2023-04-02T15:32:47.892Z,99329.31
2023-04-02T15:35:45.307Z,99315.88
2023-04-02T15:38:21.002Z,99362.13
2023-04-02T15:41:20.601Z,99353.97
2023-04-02T15:44:05.016Z,99333.47
2023-04-02T15:46:53.314Z,99389.31
2023-04-02T15:49:42.308Z,99422.09
2023-04-02T15:52:34.603Z,99448.22
2023-04-02T15:55:22.352Z,99424.72
2023-04-02T15:58:26.298Z,99435.84
2023-04-02T16:01:17.933Z,99470.38
2023-04-02T16:04:19.544Z,99491.22
2023-04-02T16:07:14.208Z,99476.38
2023-04-02T16:09:58.098Z,99465.28
2023-04-02T16:12:26.824Z,99495.81
2023-04-02T16:14:59.354Z,99499.09
2023-04-02T16:17:36.821Z,99428.69
2023-04-02T16:20:24.434Z,99437.38
2023-04-02T16:23:00.874Z,99459.78
2023-04-02T16:25:32.643Z,99453.53
2023-04-02T16:28:13.889Z,99450.41
2023-04-02T16:30:57.979Z,99443.34
2023-04-02T16:33:40.569Z,99441.09
2023-04-02T16:36:26.127Z,99462.75
2023-04-02T16:39:30.549Z,99500.38
2023-04-02T16:42:12.109Z,99520.34
2023-04-02T16:45:00.993Z,99478.56
2023-04-02T16:47:43.996Z,99473.06
2023-04-02T16:50:37.662Z,99480.38
2023-04-02T16:53:22.989Z,99514.00
2023-04-02T16:56:11.903Z,99508.63
2023-04-02T16:59:17.339Z,99527.97
2023-04-02T17:01:57.241Z,99525.28
2023-04-02T17:04:42.554Z,99514.63
2023-04-02T17:07:18.383Z,99510.59
2023-04-02T17:09:53.907Z,99501.31
2023-04-02T17:12:23.265Z,99514.28
2023-04-02T17:14:59.610Z,99476.06
2023-04-02T17:17:26.642Z,99487.84
2023-04-02T17:19:58.925Z,99473.72
2023-04-02T17:22:25.293Z,99470.19
2023-04-02T17:25:01.085Z,99486.31
2023-04-02T17:27:39.564Z,99480.03
2023-04-02T17:30:12.212Z,99481.00
2023-04-02T17:32:38.682Z,99503.41
2023-04-02T17:35:38.309Z,99517.84
2023-04-02T17:38:07.726Z,99501.28
2023-04-02T17:40:48.880Z,99545.22
2023-04-02T17:43:34.735Z,99564.94
2023-04-02T17:46:35.368Z,99574.50
2023-04-02T17:49:18.544Z,99584.50
2023-04-02T17:51:54.240Z,99599.44
2023-04-02T17:54:50.125Z,99609.03
2023-04-02T17:57:42.856Z,99606.91
2023-04-02T18:00:25.167Z,99626.00
2023-04-02T18:03:06.982Z,99631.34
2023-04-02T18:05:46.364Z,99650.09
2023-04-02T18:08:50.917Z,99651.16
2023-04-02T18:11:48.332Z,99665.78
2023-04-02T18:14:51.689Z,99657.69
2023-04-02T18:17:43.188Z,99649.50
2023-04-02T18:20:25.796Z,99653.13
2023-04-02T18:23:23.226Z,99676.91
2023-04-02T18:26:15.756Z,99660.53
2023-04-02T18:28:53.700Z,99652.38
2023-04-02T18:31:38.258Z,99673.28
2023-04-02T18:34:49.817Z,99687.69
2023-04-02T18:37:28.922Z,99667.41
2023-04-02T18:40:27.795Z,99674.78
2023-04-02T18:43:18.787Z,99692.13
2023-04-02T18:46:04.330Z,99702.13
2023-04-02T18:48:41.000Z,99724.47
2023-04-02T18:51:19.835Z,99708.06
2023-04-02T18:53:47.408Z,99711.72
2023-04-02T18:56:18.625Z,99712.84
2023-04-02T18:58:47.924Z,99726.13
2023-04-02T19:01:18.283Z,99708.72
2023-04-02T19:03:54.849Z,99718.34
2023-04-02T19:06:29.957Z,99693.09
2023-04-02T19:09:01.262Z,99722.16
2023-04-02T19:11:28.292Z,99722.66
2023-04-02T19:14:04.508Z,99750.41
2023-04-02T19:16:42.605Z,99740.09
2023-04-02T19:19:16.951Z,99706.72
2023-04-02T19:21:52.140Z,99702.06
2023-04-02T19:25:09.413Z,99700.22
2023-04-02T19:28:12.111Z,99725.75
2023-04-02T19:30:58.690Z,99737.63
2023-04-02T19:34:10.377Z,99736.66
2023-04-02T19:36:56.728Z,99715.78
2023-04-02T19:39:43.900Z,99727.88
2023-04-02T19:42:44.713Z,99742.94
2023-04-02T19:45:34.167Z,99736.09
2023-04-02T19:48:09.602Z,99738.75
2023-04-02T19:50:37.252Z,99718.56
2023-04-02T19:53:03.992Z,99732.06
2023-04-02T19:55:30.730Z,99753.25
2023-04-02T19:58:08.443Z,99754.66
2023-04-02T20:00:44.853Z,99781.13
2023-04-02T20:03:11.333Z,99776.25
2023-04-02T20:05:38.344Z,99753.53
2023-04-02T20:08:05.090Z,99763.03
2023-04-02T20:10:31.537Z,99752.56
2023-04-02T20:12:57.975Z,99725.69
2023-04-02T20:15:24.850Z,99736.50
2023-04-02T20:17:51.261Z,99756.84
2023-04-02T20:20:17.810Z,99719.50
2023-04-02T20:22:44.263Z,99719.66
2023-04-02T20:25:10.709Z,99705.03
2023-04-02T20:27:37.452Z,99713.25
2023-04-02T20:30:05.083Z,99723.25
2023-04-02T20:32:31.770Z,99701.13
2023-04-02T20:34:58.379Z,99725.63
2023-04-02T20:37:24.901Z,99740.13
2023-04-02T20:39:51.364Z,99737.19
2023-04-02T20:42:17.957Z,99728.81
2023-04-02T20:44:44.636Z,99699.03
2023-04-02T20:47:11.091Z,99706.81
2023-04-02T20:49:37.641Z,99714.19
2023-04-02T20:52:04.389Z,99694.13
2023-04-02T20:54:31.173Z,99693.47
2023-04-02T20:56:57.706Z,99688.84
2023-04-02T20:59:24.120Z,99693.75
2023-04-02T21:01:50.716Z,99673.78
2023-04-02T21:04:17.415Z,99670.19
2023-04-02T21:06:44.015Z,99688.13
2023-04-02T21:09:15.389Z,99693.00
2023-04-02T21:11:42.280Z,99692.31
2023-04-02T21:14:09.049Z,99685.34
2023-04-02T21:16:35.805Z,99697.19
2023-04-02T21:19:05.894Z,99685.06
2023-04-02T21:21:33.203Z,99663.53
2023-04-02T21:24:01.766Z,99675.22
2023-04-02T21:26:31.307Z,99659.88
2023-04-02T21:28:59.076Z,99671.56
2023-04-02T21:31:28.493Z,99682.00
2023-04-02T21:33:57.379Z,99691.19
2023-04-02T21:36:27.276Z,99688.53
2023-04-02T21:38:56.592Z,99698.28
2023-04-02T21:41:35.934Z,99719.28
2023-04-02T21:44:04.644Z,99705.97
2023-04-02T21:46:35.602Z,99689.66
2023-04-02T21:49:02.549Z,99719.56
2023-04-02T21:51:35.251Z,99719.75
2023-04-02T21:54:02.591Z,99722.88
2023-04-02T21:56:31.510Z,99724.84
2023-04-02T21:58:59.273Z,99709.25
2023-04-02T22:01:28.044Z,99720.66
2023-04-02T22:03:56.196Z,99716.59
2023-04-02T22:06:24.123Z,99717.59
2023-04-02T22:08:56.236Z,99737.59
2023-04-02T22:11:29.198Z,99722.88
2023-04-02T22:13:56.040Z,99734.59
2023-04-02T22:16:25.140Z,99728.03
2023-04-02T22:18:53.410Z,99731.50
2023-04-02T22:21:20.459Z,99724.69
2023-04-02T22:23:48.019Z,99725.00
2023-04-02T22:26:17.044Z,99742.34
2023-04-02T22:28:43.930Z,99749.59
2023-04-02T22:31:16.402Z,99747.94
2023-04-02T22:33:44.466Z,99730.81
2023-04-02T22:36:11.967Z,99744.16
2023-04-02T22:38:38.871Z,99745.66
2023-04-02T22:41:07.094Z,99752.34
2023-04-02T22:43:34.767Z,99752.19
2023-04-02T22:46:02.023Z,99730.25
2023-04-02T22:48:28.502Z,99722.41
2023-04-02T22:50:55.256Z,99720.75
2023-04-02T22:53:22.288Z,99733.78
2023-04-02T22:55:49.140Z,99721.66
2023-04-02T22:58:15.721Z,99739.28
2023-04-02T23:00:42.312Z,99742.63
2023-04-02T23:03:08.890Z,99754.19
2023-04-02T23:05:35.282Z,99728.47
2023-04-02T23:08:01.679Z,99705.78
2023-04-02T23:10:33.387Z,99721.66
2023-04-02T23:12:59.915Z,99719.50
2023-04-02T23:15:26.328Z,99732.59
2023-04-02T23:17:53.157Z,99723.16
2023-04-02T23:20:19.788Z,99718.41
2023-04-02T23:22:46.258Z,99708.00
2023-04-02T23:25:12.749Z,99701.44
2023-04-02T23:27:39.607Z,99696.50
2023-04-02T23:30:07.933Z,99709.50
2023-04-02T23:32:34.531Z,99723.19
2023-04-02T23:35:01.225Z,99724.41
2023-04-02T23:37:27.622Z,99713.78
2023-04-02T23:39:54.365Z,99720.22
2023-04-02T23:42:20.773Z,99713.06
2023-04-02T23:44:47.233Z,99718.94
2023-04-02T23:47:13.677Z,99707.28
2023-04-02T23:49:40.085Z,99703.50
2023-04-02T23:52:06.785Z,99687.94
2023-04-02T23:54:33.522Z,99700.59
2023-04-02T23:57:00.258Z,99693.03
2023-04-02T23:59:26.642Z,99697.63
